createdAt,value
2018-06-19T00:00:38.815Z,3.10
2018-06-19T00:03:07.220Z,3.60
2018-06-19T00:05:35.644Z,2.87
2018-06-19T00:08:04.046Z,3.63
2018-06-19T00:10:32.839Z,2.90
2018-06-19T00:13:01.246Z,3.03
2018-06-19T00:15:29.709Z,3.30
2018-06-19T00:18:20.473Z,3.23
2018-06-19T00:20:48.979Z,3.37
2018-06-19T00:23:17.354Z,2.90
2018-06-19T00:25:45.765Z,3.17
2018-06-19T00:28:14.238Z,3.50
2018-06-19T00:30:42.666Z,4.00
2018-06-19T00:33:11.338Z,4.90
2018-06-19T00:35:39.802Z,4.00
2018-06-19T00:38:08.267Z,3.60
2018-06-19T00:40:36.633Z,4.03
2018-06-19T00:43:05.282Z,3.43
2018-06-19T00:45:33.691Z,3.47
2018-06-19T00:48:02.094Z,3.50
2018-06-19T00:50:30.590Z,3.70
2018-06-19T00:52:59.078Z,3.37
2018-06-19T00:55:27.520Z,4.23
2018-06-19T00:57:55.898Z,3.43
2018-06-19T01:00:24.274Z,3.53
2018-06-19T01:02:52.678Z,3.60
2018-06-19T01:05:21.144Z,3.77
2018-06-19T01:07:49.618Z,3.13
2018-06-19T01:10:18.038Z,4.37
2018-06-19T01:12:46.584Z,4.00
2018-06-19T01:15:15.873Z,3.60
2018-06-19T01:17:44.302Z,3.77
2018-06-19T01:20:13.173Z,3.87
2018-06-19T01:22:41.742Z,3.90
2018-06-19T01:25:10.141Z,3.90
2018-06-19T01:27:38.617Z,4.30
2018-06-19T01:30:06.998Z,4.50
2018-06-19T01:32:35.382Z,4.33
2018-06-19T01:35:03.886Z,3.90
2018-06-19T01:37:32.354Z,4.00
2018-06-19T01:40:00.885Z,4.60
2018-06-19T01:42:29.331Z,4.80
2018-06-19T01:44:57.802Z,3.87
2018-06-19T01:47:26.285Z,4.20
2018-06-19T01:49:54.766Z,4.77
2018-06-19T01:52:23.233Z,4.33
2018-06-19T01:54:51.669Z,4.67
2018-06-19T02:02:43.718Z,4.40
2018-06-19T02:05:12.190Z,5.50
2018-06-19T02:07:40.620Z,4.10
2018-06-19T02:10:09.014Z,4.60
2018-06-19T02:12:37.691Z,4.13
2018-06-19T02:15:06.400Z,4.23
2018-06-19T02:17:34.886Z,4.23
2018-06-19T02:20:03.378Z,4.07
2018-06-19T02:22:31.805Z,3.60
2018-06-19T02:25:00.223Z,3.90
2018-06-19T02:27:28.669Z,3.67
2018-06-19T02:29:57.094Z,3.57
2018-06-19T02:32:25.498Z,3.77
2018-06-19T02:34:53.951Z,4.00
2018-06-19T02:37:22.386Z,4.70
2018-06-19T02:39:50.811Z,4.13
2018-06-19T02:42:19.339Z,3.77
2018-06-19T02:44:47.768Z,4.80
2018-06-19T02:47:16.212Z,4.80
2018-06-19T02:49:44.691Z,4.30
2018-06-19T02:52:13.042Z,4.33
2018-06-19T02:54:41.474Z,4.67
2018-06-19T02:57:09.834Z,4.03
2018-06-19T02:59:38.239Z,4.10
2018-06-19T03:02:06.961Z,4.00
2018-06-19T03:04:35.474Z,4.23
2018-06-19T03:07:03.862Z,4.00
2018-06-19T03:09:32.420Z,4.53
2018-06-19T03:12:00.867Z,4.57
2018-06-19T03:14:29.332Z,4.53
2018-06-19T03:16:57.827Z,4.10
2018-06-19T03:19:26.298Z,5.27
2018-06-19T03:21:54.737Z,4.37
2018-06-19T03:24:23.260Z,4.93
2018-06-19T03:26:51.785Z,4.30
2018-06-19T03:29:20.230Z,5.13
2018-06-19T03:31:48.594Z,4.33
2018-06-19T03:34:16.992Z,4.77
2018-06-19T03:36:45.499Z,4.87
2018-06-19T03:39:14.063Z,4.63
2018-06-19T03:41:42.745Z,4.40
2018-06-19T03:44:11.130Z,5.60
2018-06-19T03:46:39.903Z,4.80
2018-06-19T03:49:08.274Z,5.00
2018-06-19T03:51:36.663Z,4.70
2018-06-19T03:54:05.694Z,5.00
2018-06-19T03:56:34.158Z,3.90
2018-06-19T03:59:02.758Z,4.47
2018-06-19T04:01:31.219Z,4.80
2018-06-19T04:03:59.670Z,4.67
2018-06-19T04:06:32.375Z,4.57
2018-06-19T04:09:02.721Z,4.53
2018-06-19T04:11:31.207Z,5.10
2018-06-19T04:13:59.730Z,5.20
2018-06-19T04:16:28.142Z,5.37
2018-06-19T04:18:56.762Z,5.63
2018-06-19T04:21:25.523Z,5.27
2018-06-19T04:23:54.017Z,4.90
2018-06-19T04:26:22.419Z,5.23
2018-06-19T04:28:50.894Z,5.53
2018-06-19T04:31:19.428Z,5.30
2018-06-19T04:33:47.941Z,4.67
2018-06-19T04:36:16.490Z,5.70
2018-06-19T04:38:44.910Z,4.80
2018-06-19T04:41:13.398Z,5.23
2018-06-19T04:43:41.831Z,5.30
2018-06-19T04:46:10.425Z,5.33
2018-06-19T04:48:39.167Z,5.33
2018-06-19T04:51:07.898Z,5.53
2018-06-19T04:53:36.321Z,4.77
2018-06-19T04:56:04.786Z,4.53
2018-06-19T04:58:33.166Z,5.10
2018-06-19T05:01:01.639Z,5.27
2018-06-19T05:03:30.342Z,5.30
2018-06-19T05:05:58.785Z,4.90
2018-06-19T05:08:27.306Z,5.47
2018-06-19T05:10:55.850Z,5.33
2018-06-19T05:13:24.254Z,5.27
2018-06-19T05:15:52.723Z,4.60
2018-06-19T05:18:21.246Z,5.57
2018-06-19T05:20:49.703Z,5.07
2018-06-19T05:23:18.178Z,6.10
2018-06-19T05:25:46.642Z,6.27
2018-06-19T05:28:15.042Z,5.90
2018-06-19T05:30:43.587Z,5.40
2018-06-19T05:33:13.018Z,4.93
2018-06-19T05:35:41.555Z,5.30
2018-06-19T05:38:10.088Z,5.00
2018-06-19T05:40:38.614Z,5.23
2018-06-19T05:43:07.094Z,5.20
2018-06-19T05:45:35.506Z,4.90
2018-06-19T05:48:04.102Z,4.87
2018-06-19T05:50:32.487Z,5.00
2018-06-19T05:53:00.870Z,5.57
2018-06-19T05:55:29.237Z,6.60
2018-06-19T05:57:57.666Z,6.00
2018-06-19T06:00:26.099Z,5.17
2018-06-19T06:02:54.780Z,4.55
2018-06-19T06:05:23.186Z,4.47
2018-06-19T06:07:51.706Z,4.60
2018-06-19T06:10:20.289Z,4.20
2018-06-19T06:12:48.838Z,4.27
2018-06-19T06:15:17.285Z,5.27
2018-06-19T06:17:45.776Z,4.47
2018-06-19T06:20:14.166Z,5.10
2018-06-19T06:22:43.025Z,4.13
2018-06-19T06:25:11.633Z,3.83
2018-06-19T06:27:40.034Z,3.83
2018-06-19T06:30:12.456Z,4.50
2018-06-19T06:32:40.873Z,3.80
2018-06-19T06:35:09.314Z,4.03
2018-06-19T06:37:37.827Z,4.33
2018-06-19T06:40:06.362Z,3.83
2018-06-19T06:42:34.865Z,3.92
2018-06-19T06:45:03.470Z,4.20
2018-06-19T06:47:31.850Z,3.90
2018-06-19T06:50:00.242Z,4.03
2018-06-19T06:52:28.598Z,4.00
2018-06-19T06:54:57.227Z,4.35
2018-06-19T06:57:25.936Z,4.37
2018-06-19T06:59:54.406Z,4.40
2018-06-19T07:02:22.866Z,4.27
2018-06-19T07:04:51.510Z,4.10
2018-06-19T07:07:19.946Z,3.50
2018-06-19T07:09:48.479Z,4.05
2018-06-19T07:12:16.905Z,4.00
2018-06-19T07:14:45.366Z,3.75
2018-06-19T07:17:13.869Z,3.20
2018-06-19T07:19:42.346Z,2.73
2018-06-19T07:22:11.042Z,3.77
2018-06-19T07:24:39.512Z,3.37
2018-06-19T07:27:08.058Z,3.70
2018-06-19T07:29:36.627Z,3.22
2018-06-19T07:32:05.322Z,3.35
2018-06-19T07:34:33.886Z,3.37
2018-06-19T07:37:02.634Z,3.00
2018-06-19T07:39:31.082Z,3.52
2018-06-19T07:42:05.251Z,3.12
2018-06-19T07:44:34.097Z,3.83
2018-06-19T07:47:02.852Z,3.53
2018-06-19T07:49:31.527Z,3.40
2018-06-19T07:52:00.022Z,3.52
2018-06-19T07:54:28.523Z,3.12
2018-06-19T07:56:56.948Z,3.30
2018-06-19T07:59:27.769Z,3.00
2018-06-19T08:01:56.262Z,3.10
2018-06-19T08:04:24.689Z,3.22
2018-06-19T08:06:53.118Z,3.20
2018-06-19T08:09:21.741Z,3.35
2018-06-19T08:11:50.174Z,3.08
2018-06-19T08:14:18.635Z,3.27
2018-06-19T08:16:49.041Z,2.75
2018-06-19T08:19:17.657Z,3.35
2018-06-19T08:21:46.090Z,3.05
2018-06-19T08:24:15.136Z,3.80
2018-06-19T08:26:43.590Z,3.33
2018-06-19T08:29:12.858Z,3.72
2018-06-19T08:31:41.327Z,3.12
2018-06-19T08:34:09.779Z,3.15
2018-06-19T08:36:38.569Z,3.25
2018-06-19T08:39:09.775Z,3.67
2018-06-19T08:41:43.429Z,2.85
2018-06-19T08:44:13.185Z,3.15
2018-06-19T08:46:42.470Z,3.08
2018-06-19T08:49:12.275Z,3.10
2018-06-19T08:51:40.773Z,3.50
2018-06-19T08:54:15.339Z,2.83
2018-06-19T08:56:47.554Z,3.45
2018-06-19T08:59:16.280Z,2.98
2018-06-19T09:01:44.754Z,2.80
2018-06-19T09:04:13.254Z,3.08
2018-06-19T09:06:41.658Z,2.85
2018-06-19T09:09:11.565Z,2.90
2018-06-19T09:11:40.322Z,2.70
2018-06-19T09:14:08.866Z,2.85
2018-06-19T09:16:37.617Z,2.85
2018-06-19T09:19:06.468Z,3.17
2018-06-19T09:21:35.106Z,3.42
2018-06-19T09:24:03.535Z,3.15
2018-06-19T09:26:31.953Z,2.72
2018-06-19T09:29:00.365Z,3.02
2018-06-19T09:31:29.016Z,3.27
2018-06-19T09:33:57.503Z,3.33
2018-06-19T09:36:26.014Z,3.33
2018-06-19T09:38:54.463Z,3.00
2018-06-19T09:41:23.136Z,3.10
2018-06-19T09:43:51.630Z,3.27
2018-06-19T09:46:20.062Z,3.77
2018-06-19T09:48:48.548Z,3.30
2018-06-19T09:51:17.150Z,3.70
2018-06-19T09:53:46.345Z,3.27
2018-06-19T09:56:14.930Z,3.70
2018-06-19T09:58:43.768Z,3.17
2018-06-19T10:01:12.346Z,3.50
2018-06-19T10:03:41.090Z,3.25
2018-06-19T10:06:09.677Z,3.45
2018-06-19T10:08:44.768Z,3.20
2018-06-19T10:11:17.277Z,3.12
2018-06-19T10:13:46.132Z,3.08
2018-06-19T10:16:14.628Z,3.02
2018-06-19T10:18:43.694Z,2.65
2018-06-19T10:21:12.391Z,3.12
2018-06-19T10:23:40.992Z,2.65
2018-06-19T10:26:09.422Z,3.05
2018-06-19T10:28:38.742Z,3.00
2018-06-19T10:31:07.603Z,2.75
2018-06-19T10:33:36.107Z,2.70
2018-06-19T10:36:04.599Z,2.87
2018-06-19T10:38:33.076Z,2.58
2018-06-19T10:41:01.651Z,2.62
2018-06-19T10:43:30.115Z,3.10
2018-06-19T10:45:58.776Z,2.70
2018-06-19T10:48:27.267Z,2.60
2018-06-19T10:50:55.714Z,2.62
2018-06-19T10:53:24.225Z,2.75
2018-06-19T10:55:54.046Z,2.62
2018-06-19T10:58:22.561Z,3.00
2018-06-19T11:00:51.387Z,3.00
2018-06-19T11:03:19.839Z,2.87
2018-06-19T11:05:48.425Z,2.70
2018-06-19T11:08:16.948Z,3.17
2018-06-19T11:10:45.581Z,2.67
2018-06-19T11:13:14.133Z,3.00
2018-06-19T11:15:42.598Z,2.70
2018-06-19T11:18:11.100Z,3.25
2018-06-19T11:20:39.751Z,2.50
2018-06-19T11:23:08.201Z,3.02
2018-06-19T11:25:36.743Z,3.17
2018-06-19T11:28:05.570Z,2.87
2018-06-19T11:30:34.340Z,2.92
2018-06-19T11:33:02.980Z,2.75
2018-06-19T11:35:31.822Z,2.25
2018-06-19T11:38:00.212Z,2.75
2018-06-19T11:40:28.907Z,3.10
2018-06-19T11:42:57.426Z,3.27
2018-06-19T11:45:26.173Z,2.77
2018-06-19T11:47:54.739Z,2.58
2018-06-19T11:50:23.331Z,3.17
2018-06-19T11:52:51.890Z,2.60
2018-06-19T11:55:20.710Z,3.75
2018-06-19T11:57:49.251Z,2.77
2018-06-19T12:00:20.519Z,2.87
2018-06-19T12:02:48.974Z,2.65
2018-06-19T12:05:17.559Z,3.40
2018-06-19T12:07:46.936Z,2.67
2018-06-19T12:10:15.380Z,3.10
2018-06-19T12:12:44.566Z,2.55
2018-06-19T12:15:13.458Z,2.90
2018-06-19T12:17:41.937Z,2.45
2018-06-19T12:20:10.560Z,2.95
2018-06-19T12:22:39.262Z,2.85
2018-06-19T12:25:07.779Z,2.52
2018-06-19T12:27:36.298Z,2.50
2018-06-19T12:30:05.509Z,2.37
2018-06-19T12:32:34.057Z,2.45
2018-06-19T12:35:02.498Z,2.42
2018-06-19T12:37:31.371Z,2.40
2018-06-19T12:40:00.024Z,2.60
2018-06-19T12:42:28.548Z,2.12
2018-06-19T12:44:57.041Z,2.10
2018-06-19T12:47:25.430Z,2.77
2018-06-19T12:50:03.951Z,2.50
2018-06-19T12:52:43.732Z,2.67
2018-06-19T12:55:35.156Z,2.58
2018-06-19T12:58:03.634Z,2.58
2018-06-19T13:00:32.025Z,3.20
2018-06-19T13:03:12.005Z,2.55
2018-06-19T13:05:51.866Z,2.52
2018-06-19T13:08:20.339Z,2.67
2018-06-19T13:10:48.851Z,2.70
2018-06-19T13:13:29.872Z,2.80
2018-06-19T13:15:58.523Z,2.60
2018-06-19T13:18:39.975Z,2.58
2018-06-19T13:21:08.501Z,2.60
2018-06-19T13:23:37.767Z,2.50
2018-06-19T13:26:06.308Z,2.70
2018-06-19T13:29:49.623Z,2.15
2018-06-19T13:32:18.030Z,2.62
2018-06-19T13:34:46.697Z,2.60
2018-06-19T13:37:15.211Z,2.87
2018-06-19T13:39:44.185Z,2.60
2018-06-19T13:42:34.143Z,2.47
2018-06-19T13:45:05.184Z,2.60
2018-06-19T13:47:33.575Z,2.12
2018-06-19T13:50:01.982Z,2.45
2018-06-19T13:52:30.461Z,2.40
2018-06-19T13:56:19.819Z,2.33
2018-06-19T13:58:52.306Z,2.62
2018-06-19T14:01:20.868Z,3.20
2018-06-19T14:03:49.403Z,2.83
2018-06-19T14:06:17.923Z,2.92
2018-06-19T14:09:01.041Z,2.72
2018-06-19T14:11:40.791Z,2.20
2018-06-19T14:14:09.237Z,2.75
2018-06-19T14:16:37.972Z,2.65
2018-06-19T14:19:06.461Z,2.65
2018-06-19T14:21:35.319Z,2.70
2018-06-19T14:24:03.765Z,2.92
2018-06-19T14:26:32.305Z,2.67
2018-06-19T14:29:00.742Z,2.60
2018-06-19T14:31:29.232Z,2.95
2018-06-19T14:33:59.387Z,1.95
2018-06-19T14:36:27.969Z,2.75
2018-06-19T14:38:56.555Z,2.58
2018-06-19T14:41:25.350Z,2.22
2018-06-19T14:43:53.727Z,2.55
2018-06-19T14:46:22.206Z,2.80
2018-06-19T14:48:50.596Z,2.30
2018-06-19T14:51:19.079Z,2.25
2018-06-19T14:53:47.743Z,2.47
2018-06-19T14:56:16.161Z,2.60
2018-06-19T14:58:45.116Z,1.72
2018-06-19T15:01:13.575Z,2.35
2018-06-19T15:03:42.040Z,2.52
2018-06-19T15:06:10.514Z,1.90
2018-06-19T15:08:39.037Z,1.80
2018-06-19T15:11:07.532Z,2.35
2018-06-19T15:13:35.899Z,2.62
2018-06-19T15:16:05.742Z,2.30
2018-06-19T15:18:34.722Z,1.77
2018-06-19T15:21:03.557Z,2.35
2018-06-19T15:23:32.135Z,2.47
2018-06-19T15:26:00.962Z,2.00
2018-06-19T15:28:29.699Z,2.65
2018-06-19T15:30:58.549Z,2.00
2018-06-19T15:33:27.088Z,2.17
2018-06-19T15:35:55.938Z,1.92
2018-06-19T15:38:25.317Z,2.55
2018-06-19T15:40:54.247Z,1.70
2018-06-19T15:43:23.011Z,2.30
2018-06-19T15:45:52.192Z,2.50
2018-06-19T15:48:20.984Z,2.30
2018-06-19T15:50:49.496Z,2.08
2018-06-19T15:53:18.361Z,3.05
2018-06-19T15:55:46.846Z,2.27
2018-06-19T15:58:15.545Z,2.12
2018-06-19T16:00:44.126Z,2.08
2018-06-19T16:03:13.817Z,2.08
2018-06-19T16:05:42.589Z,2.25
2018-06-19T16:08:17.642Z,1.92
2018-06-19T16:10:47.591Z,2.58
2018-06-19T16:13:16.465Z,2.35
2018-06-19T16:15:45.238Z,1.85
2018-06-19T16:18:15.045Z,1.85
2018-06-19T16:20:43.736Z,2.00
2018-06-19T16:23:12.471Z,1.75
2018-06-19T16:25:41.109Z,1.85
2018-06-19T16:28:10.121Z,2.02
2018-06-19T16:30:38.787Z,1.80
2018-06-19T16:33:07.493Z,1.77
2018-06-19T16:35:36.123Z,1.98
2018-06-19T16:38:05.255Z,1.67
2018-06-19T16:40:33.942Z,2.15
2018-06-19T16:43:03.037Z,3.72
2018-06-19T16:45:32.134Z,2.30
2018-06-19T16:48:01.153Z,2.00
2018-06-19T16:50:29.639Z,1.77
2018-06-19T16:52:59.023Z,2.33
2018-06-19T16:55:28.711Z,2.00
2018-06-19T16:57:57.559Z,2.00
2018-06-19T17:00:26.163Z,1.95
2018-06-19T17:02:55.059Z,2.02
2018-06-19T17:05:23.998Z,2.40
2018-06-19T17:07:52.653Z,1.95
2018-06-19T17:10:21.645Z,2.05
2018-06-19T17:12:50.750Z,2.08
2018-06-19T17:15:19.690Z,2.30
2018-06-19T17:17:52.167Z,2.00
2018-06-19T17:20:21.005Z,2.37
2018-06-19T17:22:50.068Z,1.50
2018-06-19T17:25:19.224Z,2.95
2018-06-19T17:27:47.882Z,2.25
2018-06-19T17:30:17.393Z,2.33
2018-06-19T17:32:46.328Z,1.57
2018-06-19T17:35:15.531Z,1.95
2018-06-19T17:37:44.576Z,1.72
2018-06-19T17:40:13.619Z,1.60
2018-06-19T17:42:42.843Z,1.82
2018-06-19T17:45:11.703Z,3.20
2018-06-19T17:47:40.601Z,1.72
2018-06-19T17:50:09.486Z,2.27
2018-06-19T17:52:38.887Z,2.20
2018-06-19T17:55:07.880Z,2.67
2018-06-19T17:57:36.878Z,1.32
2018-06-19T18:00:05.970Z,2.37
2018-06-19T18:02:35.116Z,1.50
2018-06-19T18:05:04.160Z,2.42
2018-06-19T18:07:33.051Z,1.90
2018-06-19T18:10:02.044Z,1.72
2018-06-19T18:12:31.345Z,2.55
2018-06-19T18:15:00.544Z,1.85
2018-06-19T18:17:29.535Z,2.22
2018-06-19T18:19:58.736Z,1.30
2018-06-19T18:22:27.778Z,2.05
2018-06-19T18:24:56.668Z,2.00
2018-06-19T18:27:27.058Z,1.90
2018-06-19T18:29:56.347Z,1.70
2018-06-19T18:32:25.490Z,2.50
2018-06-19T18:34:54.688Z,1.62
2018-06-19T18:37:23.922Z,2.08
2018-06-19T18:39:53.032Z,2.05
2018-06-19T18:42:22.186Z,2.10
2018-06-19T18:44:51.121Z,1.55
2018-06-19T18:47:20.116Z,2.37
2018-06-19T18:49:49.159Z,1.98
2018-06-19T18:52:18.410Z,2.02
2018-06-19T18:54:47.298Z,1.60
2018-06-19T18:57:16.497Z,2.17
2018-06-19T18:59:45.439Z,1.65
2018-06-19T19:02:14.498Z,2.10
2018-06-19T19:04:43.426Z,1.80
2018-06-19T19:07:13.852Z,2.02
2018-06-19T19:10:49.460Z,1.98
2018-06-19T19:13:19.031Z,2.22
2018-06-19T19:15:53.025Z,1.95
2018-06-19T19:18:27.188Z,1.77
2018-06-19T19:20:57.043Z,2.12
2018-06-19T19:23:26.659Z,2.22
2018-06-19T19:25:55.488Z,1.85
2018-06-19T19:28:29.436Z,2.50
2018-06-19T19:30:58.508Z,2.00
2018-06-19T19:33:27.854Z,2.02
2018-06-19T19:35:56.804Z,2.40
2018-06-19T19:38:31.167Z,3.02
2018-06-19T19:41:00.246Z,2.17
2018-06-19T19:43:29.356Z,2.10
2018-06-19T19:45:58.118Z,1.90
2018-06-19T19:48:32.391Z,1.90
2018-06-19T19:51:01.299Z,2.20
2018-06-19T19:53:30.298Z,2.00
2018-06-19T19:56:04.360Z,1.70
2018-06-19T19:58:38.531Z,2.10
2018-06-19T20:01:07.363Z,2.40
2018-06-19T20:03:36.225Z,2.02
2018-06-19T20:06:05.145Z,1.90
2018-06-19T20:08:34.233Z,1.70
2018-06-19T20:11:03.076Z,2.00
2018-06-19T20:13:31.833Z,2.37
2018-06-19T20:16:01.275Z,1.50
2018-06-19T20:18:30.203Z,2.27
2018-06-19T20:20:59.110Z,2.55
2018-06-19T20:23:27.996Z,2.40
2018-06-19T20:25:56.987Z,1.98
2018-06-19T20:28:26.255Z,2.83
2018-06-19T20:30:55.141Z,1.87
2018-06-19T20:33:24.005Z,2.83
2018-06-19T20:35:56.646Z,1.67
2018-06-19T20:38:25.586Z,2.33
2018-06-19T20:40:54.455Z,1.98
2018-06-19T20:43:23.318Z,3.15
2018-06-19T20:45:52.217Z,2.08
2018-06-19T20:48:21.205Z,2.85
2018-06-19T20:50:50.096Z,1.87
2018-06-19T20:53:18.982Z,2.72
2018-06-19T20:55:47.873Z,2.90
2018-06-19T20:58:16.668Z,2.52
2018-06-19T21:00:45.601Z,2.20
2018-06-19T21:03:14.453Z,3.40
2018-06-19T21:05:43.464Z,2.47
2018-06-19T21:08:12.596Z,2.65
2018-06-19T21:10:41.574Z,2.60
2018-06-19T21:13:10.723Z,3.00
2018-06-19T21:15:39.821Z,2.40
2018-06-19T21:18:08.914Z,2.40
2018-06-19T21:20:38.073Z,2.35
2018-06-19T21:23:07.071Z,2.70
2018-06-19T21:25:36.044Z,2.42
2018-06-19T21:28:05.301Z,2.70
2018-06-19T21:30:34.095Z,2.77
2018-06-19T21:33:03.296Z,2.40
2018-06-19T21:35:32.392Z,2.65
2018-06-19T21:38:01.270Z,2.65
2018-06-19T21:40:30.211Z,2.95
2018-06-19T21:42:59.154Z,3.10
2018-06-19T21:45:28.094Z,2.58
2018-06-19T21:47:57.334Z,2.85
2018-06-19T21:50:26.151Z,2.70
2018-06-19T21:52:54.935Z,3.62
2018-06-19T21:55:23.861Z,2.77
2018-06-19T21:57:53.010Z,2.90
2018-06-19T22:00:22.003Z,2.85
2018-06-19T22:02:50.986Z,3.10
2018-06-19T22:05:19.784Z,3.45
2018-06-19T22:07:49.348Z,2.77
2018-06-19T22:10:18.991Z,2.98
2018-06-19T22:12:47.994Z,2.77
2018-06-19T22:15:16.986Z,2.72
2018-06-19T22:17:45.978Z,2.87
2018-06-19T22:20:14.889Z,2.55
2018-06-19T22:22:43.809Z,2.83
2018-06-19T22:25:12.762Z,2.87
2018-06-19T22:27:41.589Z,2.15
2018-06-19T22:30:11.686Z,3.00
2018-06-19T22:32:41.369Z,2.60
2018-06-19T22:35:10.279Z,2.80
2018-06-19T22:37:39.263Z,2.90
2018-06-19T22:40:08.288Z,3.02
2018-06-19T22:42:37.800Z,3.25
2018-06-19T22:45:06.967Z,3.72
2018-06-19T22:47:35.992Z,2.75
2018-06-19T22:50:05.039Z,2.92
2018-06-19T22:52:34.034Z,3.50
2018-06-19T22:55:02.973Z,3.42
2018-06-19T22:57:31.740Z,3.80
2018-06-19T23:00:00.642Z,3.20
2018-06-19T23:02:29.913Z,3.52
2018-06-19T23:04:58.843Z,3.87
2018-06-19T23:07:27.836Z,3.67
2018-06-19T23:09:56.723Z,3.65
2018-06-19T23:12:25.927Z,4.10
2018-06-19T23:14:55.241Z,3.70
2018-06-19T23:17:24.324Z,3.98
2018-06-19T23:19:53.589Z,3.30
2018-06-19T23:22:22.620Z,3.55
2018-06-19T23:24:51.561Z,4.03
2018-06-19T23:27:20.601Z,3.55
2018-06-19T23:29:49.901Z,3.42
2018-06-19T23:32:18.997Z,4.00
2018-06-19T23:34:48.093Z,3.65
2018-06-19T23:37:17.187Z,3.58
2018-06-19T23:39:46.509Z,3.47
2018-06-19T23:42:15.585Z,3.97
2018-06-19T23:44:44.579Z,3.67
2018-06-19T23:47:13.642Z,3.70
2018-06-19T23:49:42.666Z,3.77
2018-06-19T23:52:12.067Z,3.90
2018-06-19T23:54:41.370Z,4.73
2018-06-19T23:57:10.350Z,4.20
2018-06-19T23:59:39.306Z,3.70
